createdAt,value
2022-08-19T00:03:12.877Z,13.73
2022-08-19T00:19:25.687Z,13.10
2022-08-19T00:22:42.277Z,14.07
2022-08-19T00:25:48.835Z,13.87
2022-08-19T00:29:26.962Z,13.87
2022-08-19T00:51:01.978Z,15.70
2022-08-19T01:03:57.768Z,15.87
2022-08-19T01:07:40.912Z,14.83
2022-08-19T01:16:17.092Z,16.00
2022-08-19T01:20:13.214Z,15.57
2022-08-19T01:23:32.505Z,16.40
2022-08-19T01:27:53.579Z,15.97
2022-08-19T01:31:35.566Z,16.20
2022-08-19T01:42:30.471Z,15.93
2022-08-19T01:51:57.659Z,16.07
2022-08-19T01:55:58.812Z,15.10
2022-08-19T02:07:47.617Z,16.87
2022-08-19T02:16:45.414Z,16.40
2022-08-19T02:29:26.823Z,15.90
2022-08-19T02:37:14.068Z,14.90
2022-08-19T02:48:14.919Z,16.10
2022-08-19T02:50:55.800Z,16.13
2022-08-19T02:53:25.520Z,16.63
2022-08-19T02:55:54.264Z,15.40
2022-08-19T02:58:25.141Z,16.40
2022-08-19T03:00:57.487Z,16.07
2022-08-19T03:03:29.243Z,15.93
2022-08-19T03:06:14.234Z,16.63
2022-08-19T03:08:43.763Z,16.33
2022-08-19T03:11:16.340Z,16.80
2022-08-19T03:13:45.171Z,17.50
2022-08-19T03:16:18.601Z,17.30
2022-08-19T03:18:47.204Z,17.43
2022-08-19T03:21:17.984Z,16.43
2022-08-19T03:23:46.367Z,16.17
2022-08-19T03:26:17.077Z,17.60
2022-08-19T03:28:51.138Z,17.83
2022-08-19T03:31:44.794Z,16.03
2022-08-19T03:34:13.606Z,17.40
2022-08-19T03:36:42.065Z,16.40
2022-08-19T03:39:11.655Z,16.80
2022-08-19T03:41:45.844Z,17.83
2022-08-19T03:44:17.854Z,17.33
2022-08-19T03:46:53.963Z,17.47
2022-08-19T03:49:27.165Z,16.17
2022-08-19T03:51:57.884Z,16.67
2022-08-19T03:54:27.104Z,16.90
2022-08-19T03:56:57.519Z,17.27
2022-08-19T03:59:28.427Z,16.73
2022-08-19T04:01:59.928Z,16.40
2022-08-19T04:04:31.878Z,17.07
2022-08-19T04:07:03.195Z,16.87
2022-08-19T04:09:31.372Z,16.80
2022-08-19T04:12:00.005Z,17.00
2022-08-19T04:14:31.071Z,16.50
2022-08-19T04:17:05.484Z,16.03
2022-08-19T04:19:38.003Z,17.23
2022-08-19T04:22:06.642Z,16.67
2022-08-19T04:24:36.158Z,16.93
2022-08-19T04:27:08.138Z,16.87
2022-08-19T04:29:37.808Z,16.30
2022-08-19T04:32:08.805Z,16.60
2022-08-19T04:35:02.128Z,16.13
2022-08-19T04:37:27.454Z,16.90
2022-08-19T04:40:17.256Z,15.47
2022-08-19T04:42:45.683Z,17.07
2022-08-19T04:45:17.561Z,16.00
2022-08-19T04:47:57.969Z,17.17
2022-08-19T04:50:27.612Z,16.33
2022-08-19T04:52:56.588Z,16.53
2022-08-19T04:55:26.419Z,16.73
2022-08-19T04:57:54.755Z,16.70
2022-08-19T05:00:23.099Z,15.93
2022-08-19T05:02:55.445Z,17.03
2022-08-19T05:05:23.750Z,16.07
2022-08-19T05:07:52.084Z,16.73
2022-08-19T05:10:21.516Z,16.87
2022-08-19T05:12:49.775Z,17.03
2022-08-19T05:15:18.194Z,16.53
2022-08-19T05:18:06.437Z,15.90
2022-08-19T05:20:53.647Z,16.93
2022-08-19T05:23:23.014Z,16.40
2022-08-19T05:25:52.607Z,16.40
2022-08-19T05:28:21.244Z,17.27
2022-08-19T05:30:51.738Z,17.13
2022-08-19T05:33:20.516Z,17.67
2022-08-19T05:35:50.447Z,17.80
2022-08-19T05:38:19.213Z,17.40
2022-08-19T05:40:49.183Z,17.80
2022-08-19T05:43:18.001Z,17.60
2022-08-19T05:45:46.363Z,17.57
2022-08-19T05:48:15.173Z,17.53
2022-08-19T05:50:45.355Z,17.83
2022-08-19T05:53:17.301Z,17.30
2022-08-19T05:55:45.476Z,17.53
2022-08-19T05:58:13.691Z,17.57
2022-08-19T06:00:42.154Z,17.30
2022-08-19T06:03:12.534Z,17.00
2022-08-19T06:05:49.564Z,17.37
2022-08-19T06:08:34.611Z,17.10
2022-08-19T06:11:22.260Z,16.40
2022-08-19T06:13:59.782Z,16.60
2022-08-19T06:16:32.633Z,16.70
2022-08-19T06:19:03.584Z,16.63
2022-08-19T06:21:32.547Z,16.73
2022-08-19T06:24:03.561Z,14.90
2022-08-19T06:26:32.014Z,16.43
2022-08-19T06:29:00.249Z,16.17
2022-08-19T06:31:30.290Z,16.97
2022-08-19T06:33:58.681Z,17.27
2022-08-19T06:36:32.455Z,16.33
2022-08-19T06:39:02.613Z,16.53
2022-08-19T06:41:31.223Z,16.50
2022-08-19T06:43:59.704Z,16.03
2022-08-19T06:46:28.759Z,15.10
2022-08-19T06:48:57.067Z,15.13
2022-08-19T06:51:25.992Z,14.77
2022-08-19T06:54:02.824Z,15.43
2022-08-19T06:56:34.728Z,15.30
2022-08-19T06:59:04.844Z,15.27
2022-08-19T07:01:38.591Z,14.80
2022-08-19T07:04:07.939Z,15.10
2022-08-19T07:06:43.892Z,15.67
2022-08-19T07:09:18.756Z,15.50
2022-08-19T07:11:48.889Z,14.23
2022-08-19T07:14:19.797Z,14.97
2022-08-19T07:16:49.958Z,13.83
2022-08-19T07:19:19.319Z,14.13
2022-08-19T07:21:48.885Z,13.30
2022-08-19T07:24:19.536Z,13.00
2022-08-19T07:26:51.972Z,13.50
2022-08-19T07:29:25.637Z,12.77
2022-08-19T07:32:00.225Z,12.30
2022-08-19T07:34:30.502Z,12.93
2022-08-19T07:36:59.375Z,13.43
2022-08-19T07:39:32.875Z,11.90
2022-08-19T07:42:04.666Z,11.07
2022-08-19T07:44:32.875Z,11.83
2022-08-19T07:47:01.193Z,10.90
2022-08-19T07:49:30.197Z,10.43
2022-08-19T07:52:02.256Z,11.00
2022-08-19T07:54:35.243Z,10.90
2022-08-19T07:57:04.217Z,10.27
2022-08-19T07:59:32.974Z,9.90
2022-08-19T08:02:01.526Z,10.27
2022-08-19T08:04:47.878Z,9.70
2022-08-19T08:07:33.695Z,9.30
2022-08-19T08:10:11.424Z,9.07
2022-08-19T08:12:58.359Z,9.37
2022-08-19T08:15:42.130Z,9.30
2022-08-19T08:18:11.096Z,9.57
2022-08-19T08:20:40.156Z,9.27
2022-08-19T08:23:27.275Z,9.37
2022-08-19T08:26:00.041Z,9.00
2022-08-19T08:28:30.743Z,9.80
2022-08-19T08:31:00.136Z,9.63
2022-08-19T08:33:34.590Z,8.80
2022-08-19T08:36:04.002Z,8.50
2022-08-19T08:38:39.119Z,8.60
2022-08-19T08:41:21.230Z,8.87
2022-08-19T08:43:53.207Z,8.40
2022-08-19T08:46:30.481Z,8.60
2022-08-19T08:49:04.787Z,7.83
2022-08-19T08:54:11.915Z,8.40
2022-08-19T08:56:43.938Z,6.90
2022-08-19T08:59:18.732Z,6.97
2022-08-19T09:01:46.957Z,6.73
2022-08-19T09:04:15.634Z,7.47
2022-08-19T09:06:52.720Z,6.37
2022-08-19T09:09:25.628Z,6.90
2022-08-19T09:12:07.184Z,6.73
2022-08-19T09:14:50.723Z,6.90
2022-08-19T09:17:20.868Z,6.43
2022-08-19T09:19:55.507Z,6.90
2022-08-19T09:22:26.092Z,6.97
2022-08-19T09:24:56.704Z,6.20
2022-08-19T09:27:42.105Z,6.90
2022-08-19T09:30:15.137Z,6.77
2022-08-19T09:32:44.915Z,6.37
2022-08-19T09:35:14.919Z,6.37
2022-08-19T09:37:43.782Z,5.73
2022-08-19T09:40:14.157Z,5.90
2022-08-19T09:42:49.966Z,6.27
2022-08-19T09:45:23.035Z,6.00
2022-08-19T09:47:54.231Z,5.30
2022-08-19T09:50:24.974Z,5.70
2022-08-19T09:52:57.356Z,5.33
2022-08-19T09:55:30.963Z,5.53
2022-08-19T09:58:01.951Z,5.13
2022-08-19T10:00:31.237Z,5.40
2022-08-19T10:02:59.421Z,5.90
2022-08-19T10:05:45.299Z,4.50
2022-08-19T10:08:18.179Z,4.90
2022-08-19T10:10:47.337Z,5.20
2022-08-19T10:13:22.883Z,4.93
2022-08-19T10:15:52.080Z,5.10
2022-08-19T10:18:22.742Z,5.23
2022-08-19T10:20:53.453Z,5.10
2022-08-19T10:23:22.495Z,5.83
2022-08-19T10:25:51.315Z,5.30
2022-08-19T10:28:20.947Z,4.90
2022-08-19T10:30:51.904Z,5.30
2022-08-19T10:33:53.189Z,5.27
2022-08-19T10:36:11.732Z,4.80
2022-08-19T10:38:40.327Z,4.93
2022-08-19T10:41:23.303Z,4.50
2022-08-19T10:43:56.211Z,5.13
2022-08-19T10:46:26.551Z,5.73
2022-08-19T10:48:55.405Z,5.10
2022-08-19T10:51:47.826Z,4.30
2022-08-19T10:54:16.959Z,4.47
2022-08-19T10:56:53.704Z,4.53
2022-08-19T10:59:31.448Z,4.27
2022-08-19T11:02:05.122Z,5.13
2022-08-19T11:04:34.393Z,5.30
2022-08-19T11:07:05.849Z,4.90
2022-08-19T11:09:42.511Z,4.97
2022-08-19T11:12:11.591Z,5.07
2022-08-19T11:14:41.276Z,5.40
2022-08-19T11:17:09.680Z,5.00
2022-08-19T11:19:37.949Z,4.70
2022-08-19T11:22:06.297Z,4.63
2022-08-19T11:24:38.189Z,5.23
2022-08-19T11:45:44.174Z,4.93
2022-08-19T11:58:18.893Z,4.53
2022-08-19T12:30:58.884Z,5.23
2022-08-19T12:34:23.256Z,5.40
2022-08-19T12:42:37.460Z,4.73
2022-08-19T12:51:31.537Z,4.93
2022-08-19T13:19:54.501Z,5.03
2022-08-19T13:23:37.620Z,5.30
2022-08-19T13:26:20.159Z,5.13
2022-08-19T14:07:44.533Z,4.23
2022-08-19T14:11:38.477Z,4.03
2022-08-19T18:49:19.159Z,5.13
2022-08-19T18:52:00.142Z,5.33
2022-08-19T18:55:02.510Z,4.83
2022-08-19T18:57:52.967Z,5.00
2022-08-19T19:00:51.379Z,5.47
2022-08-19T19:03:29.898Z,5.67
2022-08-19T19:06:11.506Z,5.50
2022-08-19T19:08:47.905Z,5.27
2022-08-19T19:11:39.473Z,5.30
2022-08-19T19:14:45.657Z,5.90
2022-08-19T19:17:45.944Z,5.73
2022-08-19T19:20:23.465Z,4.90
2022-08-19T19:23:18.204Z,4.33
2022-08-19T19:25:51.879Z,4.60
2022-08-19T19:28:30.854Z,4.03
2022-08-19T19:31:04.874Z,4.13
2022-08-19T19:33:42.724Z,4.00
2022-08-19T19:36:22.618Z,3.90
2022-08-19T19:38:56.652Z,3.60
2022-08-19T19:41:32.840Z,3.70
2022-08-19T19:47:17.693Z,3.63
2022-08-19T19:50:13.946Z,3.47
2022-08-19T19:52:47.590Z,3.73
2022-08-19T19:55:30.804Z,3.83
2022-08-19T19:58:00.016Z,3.93
2022-08-19T20:24:18.939Z,3.80
2022-08-19T20:36:30.204Z,2.97
2022-08-19T20:53:38.972Z,3.40
2022-08-19T21:11:12.433Z,3.07
2022-08-19T21:14:42.925Z,3.00
2022-08-19T22:00:37.481Z,2.00
2022-08-19T22:30:38.371Z,1.80
2022-08-19T22:33:43.365Z,1.73
2022-08-19T22:36:58.550Z,1.90
2022-08-19T22:40:42.162Z,1.77
2022-08-19T22:43:58.926Z,1.60
2022-08-19T22:51:53.320Z,1.53
2022-08-19T22:58:31.476Z,1.50
2022-08-19T23:06:01.169Z,1.40
